KMSS/MSS METAR and TAF weather

Enter ICAO airport designator
Station Type Date Time Source
KMSS METAR 2019/04/24 21:53 UTC NOAA

KMSS 242153Z AUTO 26007KT 10SM OVC037 08/03 A2987 RMK AO2 SLP119 T00830028


Station Type Date Time Source
KMSS Decoded METAR 2019/04/24 21:53 UTC NOAA

MASSENA INTERNATIONAL -RICHARDS FLD, NY, United States (KMSS) 44-56N 074-51W 66M
Apr 24, 2019 - 05:53 PM EDT / 2019.04.24 2153 UTC
Wind: from the W (260 degrees) at 8 MPH (7 KT):0
Visibility: 10 mile(s):0
Sky conditions: overcast
Temperature: 46.9 F (8.3 C)
Dew Point: 37.0 F (2.8 C)
Relative Humidity: 68%
Pressure (altimeter): 29.87 in. Hg (1011 hPa)
ob: KMSS 242153Z AUTO 26007KT 10SM OVC037 08/03 A2987 RMK AO2 SLP119 T00830028
cycle: 22

Station Type Date Time Source
KMSS TAF 2019/04/24 18:22 UTC NOAA

TAF KMSS 241720Z 2418/2518 26012G22KT P6SM BKN018 OVC025
FM241900 28012G21KT P6SM OVC025
FM242100 30010KT P6SM OVC024
FM250300 32006KT P6SM BKN035
FM250800 VRB03KT P6SM BKN080

Example: see airport list